createdAt,value
2023-02-08T00:01:11.360Z,3.50
2023-02-08T00:03:39.037Z,3.08
2023-02-08T00:06:07.620Z,3.60
2023-02-08T00:08:35.852Z,3.58
2023-02-08T00:11:04.020Z,3.75
2023-02-08T00:13:32.443Z,4.00
2023-02-08T00:16:00.106Z,3.42
2023-02-08T00:18:27.613Z,3.83
2023-02-08T00:20:56.283Z,4.15
2023-02-08T00:23:25.198Z,4.40
2023-02-08T00:25:52.651Z,3.38
2023-02-08T00:28:20.345Z,4.30
2023-02-08T00:30:48.464Z,4.40
2023-02-08T00:33:15.841Z,4.70
2023-02-08T00:35:43.352Z,4.45
2023-02-08T00:38:10.871Z,4.32
2023-02-08T00:40:38.896Z,3.70
2023-02-08T00:43:07.117Z,2.60
2023-02-08T00:45:34.526Z,4.57
2023-02-08T00:48:01.878Z,4.28
2023-02-08T00:50:29.383Z,5.03
2023-02-08T00:52:58.297Z,4.70
2023-02-08T00:55:26.065Z,4.57
2023-02-08T00:57:53.439Z,5.20
2023-02-08T01:00:20.962Z,5.20
2023-02-08T01:02:48.427Z,5.35
2023-02-08T01:05:15.936Z,5.35
2023-02-08T01:07:43.234Z,6.50
2023-02-08T01:10:12.547Z,5.78
2023-02-08T01:12:40.410Z,5.68
2023-02-08T01:15:08.639Z,5.53
2023-02-08T01:17:35.979Z,5.82
2023-02-08T01:20:03.834Z,5.90
2023-02-08T01:22:31.477Z,5.22
2023-02-08T01:24:59.011Z,5.33
2023-02-08T01:27:26.529Z,6.47
2023-02-08T01:29:53.995Z,6.20
2023-02-08T01:32:21.567Z,6.35
2023-02-08T01:34:49.043Z,5.60
2023-02-08T01:37:16.516Z,5.57
2023-02-08T01:39:43.872Z,5.30
2023-02-08T01:42:14.662Z,5.88
2023-02-08T01:45:20.976Z,5.73
2023-02-08T01:47:52.445Z,5.47
2023-02-08T01:50:24.559Z,5.35
2023-02-08T01:52:52.226Z,6.00
2023-02-08T01:55:28.140Z,5.37
2023-02-08T01:58:00.252Z,5.22
2023-02-08T02:00:28.274Z,4.90
2023-02-08T02:02:58.311Z,5.65
2023-02-08T02:05:31.094Z,5.55
2023-02-08T02:07:59.524Z,4.93
2023-02-08T02:10:33.244Z,5.68
2023-02-08T02:13:08.317Z,5.45
2023-02-08T02:15:36.224Z,5.13
2023-02-08T02:18:06.354Z,6.15
2023-02-08T02:20:46.332Z,5.47
2023-02-08T02:23:16.624Z,5.57
2023-02-08T02:26:09.102Z,5.28
2023-02-08T02:28:55.155Z,4.72
2023-02-08T02:31:22.460Z,5.55
2023-02-08T02:34:11.174Z,5.38
2023-02-08T02:36:47.778Z,5.50
2023-02-08T02:39:24.020Z,4.97
2023-02-08T02:42:39.458Z,5.00
2023-02-08T02:45:27.130Z,5.68
2023-02-08T02:48:10.411Z,5.95
2023-02-08T02:51:00.277Z,4.83
2023-02-08T02:53:52.648Z,5.47
2023-02-08T02:56:24.259Z,5.40
2023-02-08T02:58:56.389Z,3.65
2023-02-08T03:01:30.338Z,5.20
2023-02-08T03:03:58.617Z,5.93
2023-02-08T03:06:37.374Z,6.00
2023-02-08T03:09:04.678Z,6.18
2023-02-08T03:11:36.886Z,6.63
2023-02-08T03:14:22.578Z,5.93
2023-02-08T03:16:59.586Z,6.20
2023-02-08T03:19:38.777Z,5.93
2023-02-08T03:22:17.431Z,5.57
2023-02-08T03:25:02.123Z,6.70
2023-02-08T03:28:08.149Z,6.50
2023-02-08T03:31:03.493Z,6.28
2023-02-08T03:33:36.831Z,4.72
2023-02-08T03:36:11.159Z,6.15
2023-02-08T03:38:43.597Z,6.47
2023-02-08T03:41:19.732Z,6.25
2023-02-08T03:43:54.453Z,6.75
2023-02-08T03:46:25.925Z,6.30
2023-02-08T03:49:18.390Z,6.22
2023-02-08T03:51:46.871Z,5.60
2023-02-08T03:54:24.104Z,5.67
2023-02-08T03:56:59.896Z,6.10
2023-02-08T03:59:35.915Z,5.78
2023-02-08T04:02:06.340Z,5.13
2023-02-08T04:04:37.356Z,6.10
2023-02-08T04:07:05.429Z,6.38
2023-02-08T04:09:32.812Z,5.80
2023-02-08T04:12:00.289Z,6.28
2023-02-08T04:14:27.740Z,5.90
2023-02-08T04:16:55.381Z,6.13
2023-02-08T04:19:22.778Z,5.93
2023-02-08T04:21:50.220Z,6.20
2023-02-08T04:24:18.003Z,6.25
2023-02-08T04:26:45.472Z,6.18
2023-02-08T04:29:13.382Z,6.22
2023-02-08T04:31:41.366Z,5.95
2023-02-08T04:34:08.822Z,5.82
2023-02-08T04:36:36.637Z,5.53
2023-02-08T04:39:04.148Z,6.65
2023-02-08T04:41:31.558Z,6.05
2023-02-08T04:43:58.964Z,6.40
2023-02-08T04:46:26.337Z,6.50
2023-02-08T04:48:53.687Z,5.97
2023-02-08T04:51:21.460Z,5.43
2023-02-08T04:53:49.087Z,6.15
2023-02-08T04:56:16.477Z,6.15
2023-02-08T04:58:43.930Z,6.25
2023-02-08T05:01:11.649Z,5.95
2023-02-08T05:03:39.010Z,6.40
2023-02-08T05:06:07.216Z,5.80
2023-02-08T05:08:34.715Z,6.18
2023-02-08T05:11:02.087Z,6.28
2023-02-08T05:13:29.618Z,6.03
2023-02-08T05:15:57.211Z,5.68
2023-02-08T05:18:24.570Z,5.28
2023-02-08T05:20:59.829Z,6.07
2023-02-08T05:23:28.164Z,6.25
2023-02-08T05:25:55.516Z,6.55
2023-02-08T05:28:23.016Z,6.22
2023-02-08T05:30:50.634Z,6.07
2023-02-08T05:33:18.530Z,6.22
2023-02-08T05:35:46.337Z,5.97
2023-02-08T05:38:13.896Z,5.40
2023-02-08T05:40:41.582Z,5.57
2023-02-08T05:43:09.033Z,6.22
2023-02-08T05:45:36.707Z,6.70
2023-02-08T05:48:04.426Z,7.00
2023-02-08T05:50:32.429Z,6.20
2023-02-08T05:53:00.076Z,6.60
2023-02-08T05:55:30.627Z,6.28
2023-02-08T05:57:58.089Z,7.20
2023-02-08T06:00:25.638Z,6.70
2023-02-08T06:02:53.025Z,6.38
2023-02-08T06:05:20.702Z,6.03
2023-02-08T06:07:48.329Z,6.32
2023-02-08T06:10:17.845Z,6.05
2023-02-08T06:12:46.153Z,6.77
2023-02-08T06:15:14.191Z,6.78
2023-02-08T06:17:42.389Z,6.57
2023-02-08T06:20:10.783Z,6.55
2023-02-08T06:22:38.416Z,6.30
2023-02-08T06:27:37.081Z,5.72
2023-02-08T06:30:06.151Z,7.00
2023-02-08T06:32:33.787Z,5.72
2023-02-08T06:35:01.829Z,6.38
2023-02-08T06:37:29.607Z,7.32
2023-02-08T06:40:00.373Z,6.05
2023-02-08T06:42:28.965Z,7.85
2023-02-08T06:44:58.149Z,6.72
2023-02-08T06:47:26.896Z,7.35
2023-02-08T06:49:56.555Z,7.88
2023-02-08T06:52:25.698Z,7.28
2023-02-08T06:54:53.285Z,6.85
2023-02-08T06:57:52.281Z,5.07
2023-02-08T07:00:45.435Z,6.57
2023-02-08T07:03:16.292Z,6.75
2023-02-08T07:05:58.723Z,7.00
2023-02-08T07:08:33.563Z,6.22
2023-02-08T07:11:05.902Z,6.70
2023-02-08T07:13:39.529Z,6.93
2023-02-08T07:16:28.088Z,5.78
2023-02-08T07:18:55.804Z,6.00
2023-02-08T07:21:23.348Z,6.40
2023-02-08T07:23:51.336Z,6.15
2023-02-08T07:26:25.444Z,6.13
2023-02-08T07:29:00.715Z,6.53
2023-02-08T07:32:06.948Z,6.50
2023-02-08T07:34:37.207Z,6.15
2023-02-08T07:37:06.309Z,6.65
2023-02-08T07:39:34.171Z,6.28
2023-02-08T07:42:02.607Z,5.95
2023-02-08T07:44:31.246Z,5.82
2023-02-08T07:54:23.943Z,6.63
2023-02-08T08:03:26.345Z,6.35
2023-02-08T08:06:20.058Z,6.43
2023-02-08T08:08:47.834Z,7.03
2023-02-08T08:11:16.379Z,7.57
2023-02-08T08:14:01.847Z,7.75
2023-02-08T08:16:30.322Z,7.22
2023-02-08T08:18:57.747Z,7.70
2023-02-08T08:21:25.279Z,7.85
2023-02-08T08:23:52.919Z,7.22
2023-02-08T08:26:22.200Z,8.50
2023-02-08T08:28:49.966Z,7.88
2023-02-08T08:31:22.060Z,7.72
2023-02-08T08:34:02.106Z,7.88
2023-02-08T08:36:34.202Z,8.10
2023-02-08T08:39:01.958Z,7.55
2023-02-08T08:41:50.053Z,8.02
2023-02-08T08:45:32.292Z,6.78
2023-02-08T08:48:01.777Z,7.07
2023-02-08T08:50:32.014Z,7.78
2023-02-08T08:53:04.214Z,7.38
2023-02-08T08:55:32.896Z,7.38
2023-02-08T08:58:00.660Z,7.35
2023-02-08T09:00:29.887Z,9.13
2023-02-08T09:02:58.623Z,7.78
2023-02-08T09:05:26.876Z,7.82
2023-02-08T09:07:56.766Z,8.25
2023-02-08T09:10:24.507Z,7.43
2023-02-08T09:13:05.469Z,8.27
2023-02-08T09:15:49.473Z,7.90
2023-02-08T09:18:41.655Z,6.32
2023-02-08T09:21:46.592Z,7.30
2023-02-08T09:24:19.684Z,7.35
2023-02-08T09:33:12.011Z,7.03
2023-02-08T09:36:13.970Z,7.72
2023-02-08T10:16:45.656Z,7.72
2023-02-08T10:52:48.410Z,8.75
2023-02-08T10:55:19.661Z,8.68
2023-02-08T10:57:52.811Z,7.18
2023-02-08T11:00:40.516Z,8.80
2023-02-08T11:06:43.488Z,8.55
2023-02-08T11:09:35.042Z,8.77
2023-02-08T11:12:03.559Z,8.13
2023-02-08T11:15:35.063Z,9.63
2023-02-08T11:29:00.265Z,9.40
2023-02-08T11:31:34.830Z,7.18
2023-02-08T11:34:16.860Z,9.73
2023-02-08T11:36:47.236Z,9.15
2023-02-08T11:39:43.589Z,8.77
2023-02-08T11:42:21.357Z,8.65
2023-02-08T11:44:53.933Z,8.68
2023-02-08T11:47:33.617Z,8.98
2023-02-08T11:50:07.449Z,7.72
2023-02-08T11:52:43.041Z,8.32
2023-02-08T11:55:20.821Z,8.30
2023-02-08T12:01:22.180Z,7.10
2023-02-08T12:03:51.540Z,6.85
2023-02-08T12:07:01.280Z,6.90
2023-02-08T12:09:53.500Z,6.95
2023-02-08T12:12:58.429Z,6.50
2023-02-08T12:15:58.231Z,6.05
2023-02-08T12:18:38.430Z,6.13
2023-02-08T12:21:15.078Z,5.88
2023-02-08T12:23:57.673Z,5.90
2023-02-08T12:26:52.838Z,5.57
2023-02-08T12:29:50.391Z,5.78
2023-02-08T12:32:44.670Z,5.50
2023-02-08T12:35:43.591Z,5.72
2023-02-08T12:39:17.811Z,4.78
2023-02-08T12:42:10.118Z,5.55
2023-02-08T12:44:53.233Z,6.05
2023-02-08T12:47:58.227Z,5.13
2023-02-08T12:50:41.644Z,5.57
2023-02-08T12:53:21.802Z,5.43
2023-02-08T12:55:52.091Z,5.38
2023-02-08T12:58:31.517Z,5.07
2023-02-08T13:01:08.595Z,5.88
2023-02-08T13:04:09.240Z,5.57
2023-02-08T13:06:53.303Z,6.72
2023-02-08T13:09:40.822Z,6.60
2023-02-08T13:12:16.107Z,6.85
2023-02-08T13:14:55.874Z,4.50
2023-02-08T13:17:51.822Z,4.65
2023-02-08T13:20:48.642Z,6.00
2023-02-08T13:23:26.930Z,5.65
2023-02-08T13:26:02.113Z,6.05
2023-02-08T13:28:30.529Z,6.32
2023-02-08T13:31:14.231Z,6.07
2023-02-08T13:34:01.975Z,6.22
2023-02-08T13:36:33.960Z,6.18
2023-02-08T13:39:07.405Z,6.35
2023-02-08T13:41:36.530Z,6.80
2023-02-08T13:44:11.916Z,6.10
2023-02-08T13:46:48.991Z,6.90
2023-02-08T13:49:41.408Z,6.70
2023-02-08T13:52:46.529Z,6.50
2023-02-08T13:55:53.483Z,7.75
2023-02-08T13:58:27.399Z,6.25
2023-02-08T14:00:57.757Z,6.72
2023-02-08T14:03:27.705Z,6.25
2023-02-08T14:06:00.129Z,6.53
2023-02-08T14:08:39.495Z,4.68
2023-02-08T14:11:43.385Z,6.20
2023-02-08T14:14:20.585Z,6.10
2023-02-08T14:17:19.252Z,8.40
2023-02-08T14:19:58.103Z,5.50
2023-02-08T14:22:36.546Z,8.23
2023-02-08T14:25:08.305Z,9.00
2023-02-08T14:27:41.218Z,8.77
2023-02-08T14:30:20.619Z,9.10
2023-02-08T14:33:05.246Z,8.70
2023-02-08T14:35:37.725Z,8.55
2023-02-08T14:38:20.565Z,8.43
2023-02-08T14:41:00.076Z,9.18
2023-02-08T14:43:34.908Z,9.63
2023-02-08T14:46:37.422Z,9.30
2023-02-08T14:49:17.082Z,9.70
2023-02-08T14:52:05.598Z,9.13
2023-02-08T14:54:39.843Z,9.20
2023-02-08T14:57:32.681Z,9.75
2023-02-08T15:00:06.627Z,6.72
2023-02-08T15:02:34.903Z,10.02
2023-02-08T15:05:10.134Z,11.00
2023-02-08T15:07:46.771Z,10.73
2023-02-08T15:10:16.278Z,9.73
2023-02-08T15:12:46.638Z,5.68
2023-02-08T15:15:41.710Z,7.65
2023-02-08T15:18:19.615Z,10.68
2023-02-08T15:21:00.979Z,10.15
2023-02-08T15:23:28.545Z,9.50
2023-02-08T15:26:05.417Z,9.90
2023-02-08T15:28:36.126Z,11.65
2023-02-08T15:31:17.274Z,9.57
2023-02-08T15:33:45.948Z,10.90
2023-02-08T15:36:33.120Z,10.98
2023-02-08T15:39:09.145Z,11.43
2023-02-08T15:41:38.267Z,10.30
2023-02-08T15:44:20.075Z,11.98
2023-02-08T15:46:49.296Z,7.18
2023-02-08T15:49:20.581Z,9.90
2023-02-08T15:51:48.594Z,11.15
2023-02-08T15:54:18.580Z,11.48
2023-02-08T15:56:51.584Z,12.65
2023-02-08T15:59:33.002Z,12.35
2023-02-08T16:02:29.270Z,12.63
2023-02-08T16:04:58.032Z,10.65
2023-02-08T16:07:43.216Z,12.30
2023-02-08T16:10:24.750Z,10.57
2023-02-08T16:12:59.952Z,11.73
2023-02-08T16:15:41.319Z,11.95
2023-02-08T16:18:35.983Z,12.18
2023-02-08T16:21:06.576Z,7.60
2023-02-08T16:23:35.492Z,9.52
2023-02-08T16:26:22.777Z,12.00
2023-02-08T16:28:57.436Z,10.07
2023-02-08T16:31:31.139Z,8.52
2023-02-08T16:34:05.340Z,12.75
2023-02-08T16:36:40.643Z,8.02
2023-02-08T16:39:13.897Z,12.30
2023-02-08T16:42:14.587Z,10.98
2023-02-08T16:45:09.830Z,11.02
2023-02-08T16:47:41.740Z,12.15
2023-02-08T16:50:11.995Z,11.13
2023-02-08T16:52:39.843Z,11.20
2023-02-08T16:55:08.523Z,14.10
2023-02-08T16:57:50.890Z,12.70
2023-02-08T17:00:22.968Z,12.82
2023-02-08T17:02:51.641Z,13.23
2023-02-08T17:05:20.571Z,13.52
2023-02-08T17:07:48.629Z,13.45
2023-02-08T17:10:36.738Z,13.70
2023-02-08T17:13:19.220Z,13.43
2023-02-08T17:15:50.419Z,14.43
2023-02-08T17:18:18.529Z,13.68
2023-02-08T17:20:46.465Z,13.15
2023-02-08T17:23:15.955Z,11.57
2023-02-08T17:25:43.964Z,11.57
2023-02-08T17:28:18.650Z,11.70
2023-02-08T17:30:47.047Z,11.90
2023-02-08T17:33:20.741Z,12.73
2023-02-08T17:35:50.556Z,12.98
2023-02-08T17:38:19.696Z,12.32
2023-02-08T17:40:48.350Z,10.98
2023-02-08T17:43:15.923Z,11.50
2023-02-08T17:45:44.944Z,13.18
2023-02-08T17:48:15.818Z,4.70
2023-02-08T17:50:47.896Z,14.02
2023-02-08T17:53:16.055Z,14.90
2023-02-08T17:55:47.224Z,14.95
2023-02-08T17:58:14.786Z,12.23
2023-02-08T18:00:42.563Z,12.80
2023-02-08T18:03:10.109Z,12.95
2023-02-08T18:05:37.905Z,11.63
2023-02-08T18:08:05.827Z,8.45
2023-02-08T18:10:33.416Z,12.77
2023-02-08T18:13:00.965Z,9.63
2023-02-08T18:15:30.832Z,9.88
2023-02-08T18:17:58.137Z,9.43
2023-02-08T18:20:25.784Z,11.95
2023-02-08T18:22:53.342Z,10.60
2023-02-08T18:25:21.044Z,9.55
2023-02-08T18:27:48.703Z,12.10
2023-02-08T18:30:16.732Z,9.05
2023-02-08T18:32:44.403Z,9.63
2023-02-08T18:35:12.056Z,11.98
2023-02-08T18:37:40.113Z,10.07
2023-02-08T18:40:09.563Z,7.78
2023-02-08T18:42:37.316Z,10.93
2023-02-08T18:45:06.315Z,10.65
2023-02-08T18:47:39.435Z,10.30
2023-02-08T18:50:09.414Z,9.23
2023-02-08T18:52:37.293Z,9.65
2023-02-08T18:55:04.974Z,10.82
2023-02-08T18:57:32.312Z,10.63
2023-02-08T18:59:59.831Z,7.78
2023-02-08T19:02:27.461Z,10.70
2023-02-08T19:04:54.841Z,10.38
2023-02-08T19:07:22.220Z,11.05
2023-02-08T19:09:49.644Z,8.55
2023-02-08T19:12:17.063Z,10.23
2023-02-08T19:14:44.472Z,9.73
2023-02-08T19:17:14.762Z,10.90
2023-02-08T19:19:43.035Z,10.65
2023-02-08T19:22:11.332Z,10.75
2023-02-08T19:24:39.603Z,6.53
2023-02-08T19:27:07.066Z,10.77
2023-02-08T19:29:34.777Z,11.52
2023-02-08T19:32:02.431Z,10.50
2023-02-08T19:34:29.852Z,9.65
2023-02-08T19:36:57.270Z,10.38
2023-02-08T19:39:27.408Z,8.70
2023-02-08T19:41:55.448Z,9.68
2023-02-08T19:44:23.090Z,9.48
2023-02-08T19:46:55.070Z,10.25
2023-02-08T19:49:26.021Z,10.00
2023-02-08T19:51:54.396Z,10.80
2023-02-08T19:54:21.931Z,9.68
2023-02-08T19:56:54.949Z,8.00
2023-02-08T19:59:28.232Z,10.68
2023-02-08T20:01:56.170Z,9.20
2023-02-08T20:04:24.354Z,9.90
2023-02-08T20:06:53.604Z,8.88
2023-02-08T20:09:21.481Z,8.77
2023-02-08T20:12:00.119Z,10.25
2023-02-08T20:14:30.620Z,10.07
2023-02-08T20:16:58.944Z,7.32
2023-02-08T20:19:26.549Z,10.70
2023-02-08T20:21:53.994Z,10.68
2023-02-08T20:24:22.168Z,10.30
2023-02-08T20:26:49.819Z,10.10
2023-02-08T20:29:17.570Z,11.25
2023-02-08T20:31:48.641Z,9.95
2023-02-08T20:34:19.160Z,8.48
2023-02-08T20:37:06.969Z,9.60
2023-02-08T20:39:37.204Z,9.27
2023-02-08T20:42:05.473Z,8.93
2023-02-08T20:44:33.004Z,9.57
2023-02-08T20:47:00.874Z,8.07
2023-02-08T20:49:29.570Z,8.45
2023-02-08T20:51:57.191Z,9.18
2023-02-08T20:54:24.889Z,9.20
2023-02-08T20:56:53.284Z,8.57
2023-02-08T20:59:20.890Z,8.60
2023-02-08T21:01:48.738Z,6.95
2023-02-08T21:04:17.317Z,8.32
2023-02-08T21:06:46.499Z,7.88
2023-02-08T21:09:16.429Z,7.45
2023-02-08T21:11:44.722Z,8.43
2023-02-08T21:14:17.612Z,6.70
2023-02-08T21:16:51.107Z,7.15
2023-02-08T21:19:20.867Z,7.97
2023-02-08T21:21:53.523Z,7.22
2023-02-08T21:24:21.103Z,7.50
2023-02-08T21:26:48.522Z,6.18
2023-02-08T21:29:16.113Z,7.65
2023-02-08T21:31:43.671Z,6.78
2023-02-08T21:34:12.078Z,6.82
2023-02-08T21:36:39.740Z,5.60
2023-02-08T21:39:07.155Z,7.70
2023-02-08T21:41:34.891Z,7.10
2023-02-08T21:44:04.643Z,6.20
2023-02-08T21:46:32.837Z,7.30
2023-02-08T21:49:19.332Z,7.97
2023-02-08T21:52:05.634Z,7.85
2023-02-08T21:54:46.865Z,6.97
2023-02-08T21:57:19.164Z,8.00
2023-02-08T21:59:52.740Z,8.60
2023-02-08T22:02:25.018Z,3.45
2023-02-08T22:05:12.475Z,8.80
2023-02-08T22:07:45.285Z,9.57
2023-02-08T22:10:14.879Z,9.68
2023-02-08T22:12:42.567Z,8.18
2023-02-08T22:15:12.396Z,10.43
2023-02-08T22:17:40.010Z,9.82
2023-02-08T22:20:08.682Z,8.93
2023-02-08T22:22:37.233Z,9.13
2023-02-08T22:25:04.933Z,7.82
2023-02-08T22:27:32.519Z,7.50
2023-02-08T22:30:01.061Z,11.30
2023-02-08T22:32:28.584Z,7.95
2023-02-08T22:34:56.001Z,10.07
2023-02-08T22:37:23.472Z,11.20
2023-02-08T22:39:50.781Z,11.80
2023-02-08T22:42:18.159Z,8.43
2023-02-08T22:44:45.774Z,8.18
2023-02-08T22:47:14.929Z,13.50
2023-02-08T22:49:42.512Z,11.75
2023-02-08T22:52:10.551Z,11.25
2023-02-08T22:54:38.814Z,11.98
2023-02-08T22:57:06.715Z,12.57
2023-02-08T22:59:34.518Z,12.88
2023-02-08T23:02:02.054Z,9.93
2023-02-08T23:04:30.231Z,12.90
2023-02-08T23:06:58.430Z,13.63
2023-02-08T23:09:26.213Z,12.43
2023-02-08T23:11:53.644Z,11.95
2023-02-08T23:14:21.015Z,14.07
2023-02-08T23:16:48.487Z,12.20
2023-02-08T23:19:17.779Z,13.27
2023-02-08T23:21:45.706Z,10.20
2023-02-08T23:24:13.120Z,14.95
2023-02-08T23:26:40.597Z,14.27
2023-02-08T23:29:08.184Z,14.00
2023-02-08T23:31:35.819Z,14.20
2023-02-08T23:34:03.423Z,12.95
2023-02-08T23:36:30.931Z,13.23
2023-02-08T23:38:58.396Z,13.43
2023-02-08T23:41:25.909Z,12.50
2023-02-08T23:43:53.486Z,14.25
2023-02-08T23:46:24.700Z,12.82
2023-02-08T23:48:52.623Z,8.05
2023-02-08T23:51:23.132Z,12.25
2023-02-08T23:53:51.801Z,11.65
2023-02-08T23:56:21.600Z,12.05
2023-02-08T23:58:51.161Z,15.10
